createdAt,value
2023-01-15T00:00:00.388Z,5
2023-01-15T00:05:00.509Z,5
2023-01-15T00:10:00.516Z,6
2023-01-15T00:15:00.540Z,5
2023-01-15T00:20:00.344Z,4
2023-01-15T00:25:00.519Z,5
2023-01-15T00:30:00.525Z,5
2023-01-15T00:35:00.460Z,5
2023-01-15T00:40:00.353Z,5
2023-01-15T00:45:00.516Z,4
2023-01-15T00:50:00.375Z,5
2023-01-15T00:55:01.294Z,6
2023-01-15T01:00:00.347Z,4
2023-01-15T01:05:00.518Z,3
2023-01-15T01:10:00.366Z,5
2023-01-15T01:15:00.511Z,4
2023-01-15T01:20:00.361Z,5
2023-01-15T01:25:00.543Z,5
2023-01-15T01:30:00.359Z,5
2023-01-15T01:35:00.506Z,4
2023-01-15T01:40:00.353Z,5
2023-01-15T01:45:00.541Z,5
2023-01-15T01:50:00.358Z,5
2023-01-15T01:55:00.707Z,5
2023-01-15T02:00:00.350Z,4
2023-01-15T02:05:00.514Z,5
2023-01-15T02:10:00.351Z,5
2023-01-15T02:15:00.499Z,5
2023-01-15T02:20:00.575Z,6
2023-01-15T02:25:00.452Z,5
2023-01-15T02:30:00.359Z,5
2023-01-15T02:35:00.710Z,4
2023-01-15T02:40:00.347Z,5
2023-01-15T02:45:00.511Z,4
2023-01-15T02:50:00.352Z,5
2023-01-15T02:55:00.507Z,4
2023-01-15T03:00:00.361Z,5
2023-01-15T03:05:00.504Z,5
2023-01-15T03:10:00.341Z,5
2023-01-15T03:15:00.509Z,4
2023-01-15T03:20:00.536Z,4
2023-01-15T03:25:00.476Z,4
2023-01-15T03:30:00.353Z,3
2023-01-15T03:35:00.516Z,5
2023-01-15T03:40:00.365Z,7
2023-01-15T03:45:00.522Z,6
2023-01-15T03:50:00.515Z,5
2023-01-15T03:55:00.512Z,5
2023-01-15T04:00:00.356Z,6
2023-01-15T04:05:00.580Z,7
2023-01-15T04:10:00.352Z,5
2023-01-15T04:15:00.521Z,6
2023-01-15T04:20:00.355Z,6
2023-01-15T04:25:00.520Z,5
2023-01-15T04:30:00.363Z,4
2023-01-15T04:35:00.507Z,6
2023-01-15T04:40:00.358Z,6
2023-01-15T04:45:00.512Z,5
2023-01-15T04:50:00.349Z,5
2023-01-15T04:55:00.506Z,5
2023-01-15T05:00:00.383Z,5
2023-01-15T05:05:00.517Z,5
2023-01-15T05:10:00.348Z,6
2023-01-15T05:15:00.537Z,5
2023-01-15T05:20:00.370Z,5
2023-01-15T05:25:00.516Z,5
2023-01-15T05:30:00.356Z,4
2023-01-15T05:35:00.509Z,5
2023-01-15T05:40:00.354Z,4
2023-01-15T05:45:00.517Z,4
2023-01-15T05:50:00.345Z,4
2023-01-15T05:55:00.507Z,2
2023-01-15T06:00:00.352Z,2
2023-01-15T06:05:00.500Z,2
2023-01-15T06:15:00.523Z,1
2023-01-15T06:20:00.372Z,1
2023-01-15T06:25:00.505Z,1
2023-01-15T06:30:00.354Z,3
2023-01-15T06:40:00.349Z,3
2023-01-15T06:45:00.518Z,2
2023-01-15T06:55:00.512Z,2
2023-01-15T07:00:00.365Z,3
2023-01-15T07:05:00.509Z,2
2023-01-15T07:10:00.346Z,2
2023-01-15T07:15:00.526Z,3
2023-01-15T07:20:00.356Z,3
2023-01-15T07:25:00.510Z,2
2023-01-15T07:30:00.360Z,2
2023-01-15T07:35:00.526Z,3
2023-01-15T07:40:00.359Z,2
2023-01-15T07:45:00.513Z,3
2023-01-15T07:50:00.364Z,4
2023-01-15T07:55:00.516Z,3
2023-01-15T08:00:00.349Z,4
2023-01-15T08:05:00.546Z,3
2023-01-15T08:10:00.375Z,4
2023-01-15T08:20:00.350Z,3
2023-01-15T08:25:00.510Z,3
2023-01-15T08:30:00.560Z,3
2023-01-15T08:35:00.467Z,3
2023-01-15T08:40:00.377Z,3
2023-01-15T08:45:00.514Z,4
2023-01-15T08:50:00.365Z,4
2023-01-15T08:55:00.505Z,2
2023-01-15T09:00:00.388Z,3
2023-01-15T09:05:00.610Z,3
2023-01-15T09:10:00.365Z,5
2023-01-15T09:15:02.326Z,5
2023-01-15T09:20:00.552Z,4
2023-01-15T09:25:00.543Z,4
2023-01-15T09:30:00.352Z,4
2023-01-15T09:35:00.511Z,5
2023-01-15T09:40:00.355Z,5
2023-01-15T09:45:00.506Z,5
2023-01-15T09:50:00.349Z,6
2023-01-15T09:55:00.505Z,5
2023-01-15T10:00:00.358Z,5
2023-01-15T10:05:00.510Z,5
2023-01-15T10:10:00.654Z,4
2023-01-15T10:15:00.510Z,4
2023-01-15T10:20:00.358Z,5
2023-01-15T10:25:00.507Z,5
2023-01-15T10:30:00.381Z,5
2023-01-15T10:35:00.506Z,4
2023-01-15T10:40:00.350Z,4
2023-01-15T10:45:00.515Z,5
2023-01-15T10:50:00.347Z,5
2023-01-15T10:55:02.489Z,5
2023-01-15T11:00:00.362Z,5
2023-01-15T11:05:00.512Z,4
2023-01-15T11:10:00.356Z,6
2023-01-15T11:15:00.546Z,5
2023-01-15T11:20:00.382Z,5
2023-01-15T11:25:00.522Z,5
2023-01-15T11:30:00.360Z,5
2023-01-15T11:35:00.644Z,6
2023-01-15T11:40:00.370Z,5
2023-01-15T11:45:00.513Z,4
2023-01-15T11:50:00.354Z,5
2023-01-15T11:55:00.514Z,6
2023-01-15T12:00:00.391Z,5
2023-01-15T12:05:02.496Z,5
2023-01-15T12:10:00.352Z,5
2023-01-15T12:15:02.520Z,4
2023-01-15T12:20:00.386Z,5
2023-01-15T12:25:00.511Z,4
2023-01-15T12:30:00.360Z,5
2023-01-15T12:35:00.517Z,6
2023-01-15T12:40:00.361Z,5
2023-01-15T12:45:00.532Z,5
2023-01-15T12:50:00.505Z,5
2023-01-15T12:55:00.540Z,7
2023-01-15T13:00:00.350Z,6
2023-01-15T13:05:00.516Z,6
2023-01-15T13:10:00.359Z,6
2023-01-15T13:15:00.514Z,7
2023-01-15T13:20:00.357Z,6
2023-01-15T13:25:00.548Z,6
2023-01-15T13:30:00.398Z,7
2023-01-15T13:35:00.519Z,6
2023-01-15T13:40:00.519Z,6
2023-01-15T13:45:00.510Z,6
2023-01-15T13:50:00.354Z,6
2023-01-15T13:55:00.509Z,7
2023-01-15T14:00:00.355Z,7
2023-01-15T14:05:00.514Z,6
2023-01-15T14:10:00.352Z,7
2023-01-15T14:15:02.497Z,7
2023-01-15T14:20:00.360Z,6
2023-01-15T14:25:00.521Z,7
2023-01-15T14:30:00.520Z,6
2023-01-15T14:35:00.511Z,6
2023-01-15T14:40:00.364Z,6
2023-01-15T14:45:02.495Z,7
2023-01-15T14:50:00.360Z,6
2023-01-15T14:55:00.511Z,6
2023-01-15T15:00:00.408Z,5
2023-01-15T15:05:00.524Z,6
2023-01-15T15:10:00.377Z,7
2023-01-15T15:15:00.563Z,5
2023-01-15T15:20:00.361Z,5
2023-01-15T15:25:00.574Z,5
2023-01-15T15:30:00.345Z,8
2023-01-15T15:35:00.514Z,6
2023-01-15T15:40:00.529Z,6
2023-01-15T15:45:00.529Z,6
2023-01-15T15:50:00.467Z,6
2023-01-15T15:55:00.511Z,7
2023-01-15T16:00:00.449Z,6
2023-01-15T16:05:00.508Z,6
2023-01-15T16:10:00.449Z,5
2023-01-15T16:15:00.513Z,6
2023-01-15T16:20:00.365Z,7
2023-01-15T16:25:00.519Z,6
2023-01-15T16:30:00.344Z,6
2023-01-15T16:35:00.662Z,7
2023-01-15T16:40:00.545Z,7
2023-01-15T16:45:00.539Z,6
2023-01-15T16:50:00.345Z,6
2023-01-15T16:55:00.526Z,6
2023-01-15T17:00:00.353Z,6
2023-01-15T17:05:02.505Z,7
2023-01-15T17:10:00.369Z,6
2023-01-15T17:15:00.506Z,6
2023-01-15T17:20:00.362Z,7
2023-01-15T17:25:00.561Z,7
2023-01-15T17:30:00.353Z,7
2023-01-15T17:35:00.507Z,8
2023-01-15T17:40:00.396Z,7
2023-01-15T17:45:00.516Z,7
2023-01-15T17:50:00.361Z,6
2023-01-15T17:55:00.532Z,7
2023-01-15T18:00:00.362Z,7
2023-01-15T18:05:02.488Z,6
2023-01-15T18:10:00.363Z,6
2023-01-15T18:15:00.532Z,6
2023-01-15T18:20:00.369Z,6
2023-01-15T18:25:00.509Z,6
2023-01-15T18:30:00.372Z,6
2023-01-15T18:35:00.511Z,7
2023-01-15T18:40:00.356Z,6
2023-01-15T18:45:00.521Z,7
2023-01-15T18:50:00.347Z,6
2023-01-15T18:55:00.503Z,7
2023-01-15T19:00:00.356Z,6
2023-01-15T19:05:00.507Z,7
2023-01-15T19:10:00.363Z,6
2023-01-15T19:15:00.506Z,6
2023-01-15T19:20:00.379Z,6
2023-01-15T19:25:00.550Z,6
2023-01-15T19:30:00.377Z,7
2023-01-15T19:35:00.510Z,8
2023-01-15T19:40:00.369Z,6
2023-01-15T19:45:00.565Z,6
2023-01-15T19:50:00.347Z,6
2023-01-15T19:55:00.547Z,6
2023-01-15T20:00:00.358Z,5
2023-01-15T20:05:00.512Z,5
2023-01-15T20:10:00.513Z,5
2023-01-15T20:15:00.513Z,6
2023-01-15T20:20:00.357Z,5
2023-01-15T20:25:00.504Z,6
2023-01-15T20:30:00.354Z,5
2023-01-15T20:35:00.510Z,5
2023-01-15T20:40:00.360Z,4
2023-01-15T20:45:00.594Z,5
2023-01-15T20:50:00.362Z,7
2023-01-15T20:55:00.513Z,5
2023-01-15T21:00:00.367Z,6
2023-01-15T21:05:00.508Z,6
2023-01-15T21:10:00.369Z,6
2023-01-15T21:15:00.512Z,7
2023-01-15T21:20:00.534Z,6
2023-01-15T21:25:00.513Z,7
2023-01-15T21:30:00.348Z,5
2023-01-15T21:35:00.514Z,6
2023-01-15T21:40:00.355Z,5
2023-01-15T21:45:00.646Z,6
2023-01-15T21:50:00.355Z,6
2023-01-15T21:55:00.580Z,5
2023-01-15T22:00:00.372Z,5
2023-01-15T22:05:00.509Z,5
2023-01-15T22:10:00.533Z,5
2023-01-15T22:15:00.471Z,6
2023-01-15T22:20:00.358Z,5
2023-01-15T22:25:00.549Z,5
2023-01-15T22:30:00.346Z,5
2023-01-15T22:35:00.523Z,5
2023-01-15T22:40:00.351Z,5
2023-01-15T22:45:00.888Z,5
2023-01-15T22:50:00.351Z,5
2023-01-15T22:55:00.511Z,6
2023-01-15T23:00:00.409Z,4
2023-01-15T23:05:00.503Z,5
2023-01-15T23:10:00.351Z,4
2023-01-15T23:15:00.660Z,5
2023-01-15T23:20:00.355Z,5
2023-01-15T23:25:00.523Z,4
2023-01-15T23:30:00.364Z,5
2023-01-15T23:35:00.521Z,5
2023-01-15T23:40:00.375Z,4
2023-01-15T23:45:05.434Z,5
2023-01-15T23:50:00.351Z,4
2023-01-15T23:55:00.510Z,5
